sensor_id;sensor_type;location;lat;lon;timestamp;P1;durP1;ratioP1;P2;durP2;ratioP2
41887;SDS011;63122;52.424;13.458;2024-03-25T00:56:35;4.47;;;3.37;;
41887;SDS011;63122;52.424;13.458;2024-03-25T00:58:27;4.87;;;4.00;;
41887;SDS011;63122;52.424;13.458;2024-03-25T01:00:19;5.57;;;4.23;;
41887;SDS011;63122;52.424;13.458;2024-03-25T01:02:11;4.77;;;3.97;;
41887;SDS011;63122;52.424;13.458;2024-03-25T01:04:03;6.23;;;4.30;;
41887;SDS011;63122;52.424;13.458;2024-03-25T01:05:55;4.30;;;3.73;;
41887;SDS011;63122;52.424;13.458;2024-03-25T01:07:46;6.57;;;4.20;;
41887;SDS011;63122;52.424;13.458;2024-03-25T01:09:40;6.70;;;4.17;;
41887;SDS011;63122;52.424;13.458;2024-03-25T01:11:32;7.40;;;4.30;;
41887;SDS011;63122;52.424;13.458;2024-03-25T01:13:24;7.60;;;4.83;;
41887;SDS011;63122;52.424;13.458;2024-03-25T01:15:18;6.77;;;4.20;;
41887;SDS011;63122;52.424;13.458;2024-03-25T01:17:10;10.03;;;5.00;;
41887;SDS011;63122;52.424;13.458;2024-03-25T01:19:01;6.93;;;5.43;;
41887;SDS011;63122;52.424;13.458;2024-03-25T01:20:56;7.23;;;4.30;;
41887;SDS011;63122;52.424;13.458;2024-03-25T01:22:47;7.40;;;5.00;;
41887;SDS011;63122;52.424;13.458;2024-03-25T01:24:44;10.60;;;6.03;;
41887;SDS011;63122;52.424;13.458;2024-03-25T01:26:35;7.80;;;4.83;;
41887;SDS011;63122;52.424;13.458;2024-03-25T01:28:27;8.27;;;4.73;;
41887;SDS011;63122;52.424;13.458;2024-03-25T01:30:19;6.43;;;4.63;;
41887;SDS011;63122;52.424;13.458;2024-03-25T01:32:11;12.50;;;5.03;;
41887;SDS011;63122;52.424;13.458;2024-03-25T01:34:03;8.60;;;5.40;;
41887;SDS011;63122;52.424;13.458;2024-03-25T01:35:55;8.30;;;5.20;;
41887;SDS011;63122;52.424;13.458;2024-03-25T01:37:47;9.20;;;5.30;;
41887;SDS011;63122;52.424;13.458;2024-03-25T01:39:43;8.97;;;4.90;;
41887;SDS011;63122;52.424;13.458;2024-03-25T01:41:34;7.83;;;5.10;;
41887;SDS011;63122;52.424;13.458;2024-03-25T01:43:26;8.73;;;5.03;;
41887;SDS011;63122;52.424;13.458;2024-03-25T01:45:18;7.50;;;4.63;;
41887;SDS011;63122;52.424;13.458;2024-03-25T01:47:10;7.60;;;4.53;;
41887;SDS011;63122;52.424;13.458;2024-03-25T01:49:01;5.80;;;4.20;;
41887;SDS011;63122;52.424;13.458;2024-03-25T01:50:53;6.30;;;4.63;;
41887;SDS011;63122;52.424;13.458;2024-03-25T01:52:45;4.03;;;2.60;;
41887;SDS011;63122;52.424;13.458;2024-03-25T01:54:37;6.40;;;3.30;;
41887;SDS011;63122;52.424;13.458;2024-03-25T01:56:32;6.37;;;2.80;;
41887;SDS011;63122;52.424;13.458;2024-03-25T01:58:24;4.07;;;2.67;;
41887;SDS011;63122;52.424;13.458;2024-03-25T02:00:17;4.87;;;2.50;;
41887;SDS011;63122;52.424;13.458;2024-03-25T02:02:09;5.43;;;2.50;;
41887;SDS011;63122;52.424;13.458;2024-03-25T02:04:02;3.20;;;2.53;;
41887;SDS011;63122;52.424;13.458;2024-03-25T02:05:55;4.97;;;2.63;;
41887;SDS011;63122;52.424;13.458;2024-03-25T02:07:50;5.70;;;2.97;;
41887;SDS011;63122;52.424;13.458;2024-03-25T02:09:42;8.23;;;3.13;;
41887;SDS011;63122;52.424;13.458;2024-03-25T02:11:38;5.17;;;2.63;;
41887;SDS011;63122;52.424;13.458;2024-03-25T02:13:30;6.27;;;3.00;;
41887;SDS011;63122;52.424;13.458;2024-03-25T02:15:22;5.10;;;2.40;;
41887;SDS011;63122;52.424;13.458;2024-03-25T02:17:13;5.73;;;2.67;;
41887;SDS011;63122;52.424;13.458;2024-03-25T02:19:05;3.43;;;2.47;;
41887;SDS011;63122;52.424;13.458;2024-03-25T02:20:58;4.30;;;2.07;;
41887;SDS011;63122;52.424;13.458;2024-03-25T02:22:50;3.87;;;1.90;;
41887;SDS011;63122;52.424;13.458;2024-03-25T02:24:42;3.13;;;1.93;;
41887;SDS011;63122;52.424;13.458;2024-03-25T02:26:38;2.80;;;1.90;;
41887;SDS011;63122;52.424;13.458;2024-03-25T02:28:30;3.63;;;2.13;;
41887;SDS011;63122;52.424;13.458;2024-03-25T02:30:22;6.60;;;2.70;;
41887;SDS011;63122;52.424;13.458;2024-03-25T02:32:13;6.77;;;2.90;;
41887;SDS011;63122;52.424;13.458;2024-03-25T02:34:05;5.80;;;3.50;;
41887;SDS011;63122;52.424;13.458;2024-03-25T02:35:56;9.17;;;3.67;;
41887;SDS011;63122;52.424;13.458;2024-03-25T02:37:48;8.73;;;3.93;;
41887;SDS011;63122;52.424;13.458;2024-03-25T02:39:42;6.57;;;3.47;;
41887;SDS011;63122;52.424;13.458;2024-03-25T02:41:34;8.50;;;4.33;;
41887;SDS011;63122;52.424;13.458;2024-03-25T02:43:29;12.70;;;5.57;;
41887;SDS011;63122;52.424;13.458;2024-03-25T02:45:21;8.47;;;4.07;;
41887;SDS011;63122;52.424;13.458;2024-03-25T02:47:13;12.00;;;5.67;;
41887;SDS011;63122;52.424;13.458;2024-03-25T02:49:04;14.70;;;5.70;;
41887;SDS011;63122;52.424;13.458;2024-03-25T02:50:56;10.17;;;5.33;;
41887;SDS011;63122;52.424;13.458;2024-03-25T02:52:48;11.77;;;5.00;;
41887;SDS011;63122;52.424;13.458;2024-03-25T02:54:39;12.23;;;4.83;;
41887;SDS011;63122;52.424;13.458;2024-03-25T02:56:31;11.03;;;4.17;;
41887;SDS011;63122;52.424;13.458;2024-03-25T02:58:25;11.60;;;3.97;;
41887;SDS011;63122;52.424;13.458;2024-03-25T03:43:27;5.20;;;2.83;;
41887;SDS011;63122;52.424;13.458;2024-03-25T03:45:19;6.73;;;3.60;;
41887;SDS011;63122;52.424;13.458;2024-03-25T03:47:11;6.23;;;3.47;;
41887;SDS011;63122;52.424;13.458;2024-03-25T03:49:03;6.47;;;3.07;;
41887;SDS011;63122;52.424;13.458;2024-03-25T03:50:54;8.17;;;3.43;;
41887;SDS011;63122;52.424;13.458;2024-03-25T03:52:46;8.30;;;3.77;;
41887;SDS011;63122;52.424;13.458;2024-03-25T03:54:37;7.37;;;3.03;;
41887;SDS011;63122;52.424;13.458;2024-03-25T03:56:29;9.60;;;3.70;;
41887;SDS011;63122;52.424;13.458;2024-03-25T03:58:21;8.37;;;3.27;;
41887;SDS011;63122;52.424;13.458;2024-03-25T04:00:16;5.40;;;3.20;;
41887;SDS011;63122;52.424;13.458;2024-03-25T04:02:07;7.50;;;3.00;;
41887;SDS011;63122;52.424;13.458;2024-03-25T04:03:59;8.00;;;2.43;;
41887;SDS011;63122;52.424;13.458;2024-03-25T04:05:51;7.77;;;3.17;;
41887;SDS011;63122;52.424;13.458;2024-03-25T04:07:42;6.03;;;2.73;;
41887;SDS011;63122;52.424;13.458;2024-03-25T04:09:34;10.83;;;2.80;;
41887;SDS011;63122;52.424;13.458;2024-03-25T04:11:25;4.73;;;2.30;;
41887;SDS011;63122;52.424;13.458;2024-03-25T04:13:17;9.33;;;3.03;;
41887;SDS011;63122;52.424;13.458;2024-03-25T04:15:09;9.13;;;3.27;;
41887;SDS011;63122;52.424;13.458;2024-03-25T04:17:03;7.70;;;3.30;;
41887;SDS011;63122;52.424;13.458;2024-03-25T04:18:54;8.17;;;3.30;;
41887;SDS011;63122;52.424;13.458;2024-03-25T04:20:46;6.33;;;2.97;;
41887;SDS011;63122;52.424;13.458;2024-03-25T04:22:40;12.27;;;3.50;;
41887;SDS011;63122;52.424;13.458;2024-03-25T04:24:32;6.83;;;2.90;;
41887;SDS011;63122;52.424;13.458;2024-03-25T04:26:24;8.03;;;3.47;;
41887;SDS011;63122;52.424;13.458;2024-03-25T04:28:16;7.87;;;3.40;;
41887;SDS011;63122;52.424;13.458;2024-03-25T04:30:08;6.83;;;3.30;;
41887;SDS011;63122;52.424;13.458;2024-03-25T04:32:03;7.83;;;3.63;;
41887;SDS011;63122;52.424;13.458;2024-03-25T04:33:55;8.27;;;3.30;;
41887;SDS011;63122;52.424;13.458;2024-03-25T04:35:47;7.70;;;3.80;;
41887;SDS011;63122;52.424;13.458;2024-03-25T04:37:39;7.27;;;3.40;;
41887;SDS011;63122;52.424;13.458;2024-03-25T04:39:30;12.60;;;3.80;;
41887;SDS011;63122;52.424;13.458;2024-03-25T04:41:22;6.53;;;3.43;;
41887;SDS011;63122;52.424;13.458;2024-03-25T04:43:13;10.00;;;3.27;;
41887;SDS011;63122;52.424;13.458;2024-03-25T04:45:05;10.40;;;3.23;;
41887;SDS011;63122;52.424;13.458;2024-03-25T04:46:57;5.90;;;3.53;;
41887;SDS011;63122;52.424;13.458;2024-03-25T04:48:51;8.37;;;3.53;;
41887;SDS011;63122;52.424;13.458;2024-03-25T04:50:43;9.23;;;3.80;;
41887;SDS011;63122;52.424;13.458;2024-03-25T04:52:35;7.30;;;3.63;;
41887;SDS011;63122;52.424;13.458;2024-03-25T04:54:26;12.03;;;3.90;;
41887;SDS011;63122;52.424;13.458;2024-03-25T04:56:18;8.63;;;3.33;;
41887;SDS011;63122;52.424;13.458;2024-03-25T04:58:09;7.27;;;3.47;;
41887;SDS011;63122;52.424;13.458;2024-03-25T05:00:01;8.07;;;3.20;;
41887;SDS011;63122;52.424;13.458;2024-03-25T05:01:53;8.17;;;3.73;;
41887;SDS011;63122;52.424;13.458;2024-03-25T05:03:45;8.03;;;3.43;;
41887;SDS011;63122;52.424;13.458;2024-03-25T05:05:39;7.93;;;3.27;;
41887;SDS011;63122;52.424;13.458;2024-03-25T05:07:30;10.40;;;3.47;;
41887;SDS011;63122;52.424;13.458;2024-03-25T05:09:22;7.33;;;3.20;;
41887;SDS011;63122;52.424;13.458;2024-03-25T05:11:13;12.73;;;4.03;;
41887;SDS011;63122;52.424;13.458;2024-03-25T05:13:05;10.57;;;4.17;;
41887;SDS011;63122;52.424;13.458;2024-03-25T05:14:56;13.67;;;3.93;;
41887;SDS011;63122;52.424;13.458;2024-03-25T05:16:48;13.57;;;4.10;;
41887;SDS011;63122;52.424;13.458;2024-03-25T05:18:40;8.43;;;4.03;;
41887;SDS011;63122;52.424;13.458;2024-03-25T05:20:31;8.30;;;3.77;;
41887;SDS011;63122;52.424;13.458;2024-03-25T05:22:25;11.60;;;4.10;;
41887;SDS011;63122;52.424;13.458;2024-03-25T05:24:17;13.60;;;4.43;;
41887;SDS011;63122;52.424;13.458;2024-03-25T05:26:09;13.07;;;4.60;;
41887;SDS011;63122;52.424;13.458;2024-03-25T05:28:00;7.10;;;4.23;;
41887;SDS011;63122;52.424;13.458;2024-03-25T05:29:52;6.70;;;3.90;;
41887;SDS011;63122;52.424;13.458;2024-03-25T05:31:56;13.07;;;4.50;;
41887;SDS011;63122;52.424;13.458;2024-03-25T05:33:48;15.77;;;4.50;;
41887;SDS011;63122;52.424;13.458;2024-03-25T05:35:40;13.60;;;4.77;;
41887;SDS011;63122;52.424;13.458;2024-03-25T05:37:35;9.23;;;4.20;;
41887;SDS011;63122;52.424;13.458;2024-03-25T05:39:26;9.87;;;3.80;;
41887;SDS011;63122;52.424;13.458;2024-03-25T05:41:18;11.37;;;4.30;;
41887;SDS011;63122;52.424;13.458;2024-03-25T05:43:09;17.37;;;5.00;;
41887;SDS011;63122;52.424;13.458;2024-03-25T05:45:01;18.57;;;5.00;;
41887;SDS011;63122;52.424;13.458;2024-03-25T05:46:53;14.53;;;4.37;;
41887;SDS011;63122;52.424;13.458;2024-03-25T05:48:44;11.60;;;4.43;;
41887;SDS011;63122;52.424;13.458;2024-03-25T05:50:36;15.17;;;4.50;;
41887;SDS011;63122;52.424;13.458;2024-03-25T05:52:28;14.53;;;4.80;;
41887;SDS011;63122;52.424;13.458;2024-03-25T05:54:23;11.37;;;3.87;;
41887;SDS011;63122;52.424;13.458;2024-03-25T05:56:14;11.00;;;4.10;;
41887;SDS011;63122;52.424;13.458;2024-03-25T05:58:06;10.03;;;4.13;;
41887;SDS011;63122;52.424;13.458;2024-03-25T05:59:58;11.17;;;4.37;;
41887;SDS011;63122;52.424;13.458;2024-03-25T06:01:49;9.53;;;4.23;;
41887;SDS011;63122;52.424;13.458;2024-03-25T06:03:41;14.07;;;4.37;;
41887;SDS011;63122;52.424;13.458;2024-03-25T06:05:33;13.10;;;4.90;;
41887;SDS011;63122;52.424;13.458;2024-03-25T06:07:24;16.23;;;5.23;;
41887;SDS011;63122;52.424;13.458;2024-03-25T06:09:16;14.30;;;4.97;;
41887;SDS011;63122;52.424;13.458;2024-03-25T06:11:10;14.83;;;5.10;;
41887;SDS011;63122;52.424;13.458;2024-03-25T06:13:01;12.13;;;5.43;;
41887;SDS011;63122;52.424;13.458;2024-03-25T06:14:53;10.43;;;5.43;;
41887;SDS011;63122;52.424;13.458;2024-03-25T06:16:45;17.73;;;5.40;;
41887;SDS011;63122;52.424;13.458;2024-03-25T06:18:36;17.90;;;5.60;;
41887;SDS011;63122;52.424;13.458;2024-03-25T06:20:28;18.70;;;5.00;;
41887;SDS011;63122;52.424;13.458;2024-03-25T06:22:20;11.57;;;4.50;;
41887;SDS011;63122;52.424;13.458;2024-03-25T06:24:11;16.97;;;5.13;;
41887;SDS011;63122;52.424;13.458;2024-03-25T06:26:03;14.43;;;5.00;;
41887;SDS011;63122;52.424;13.458;2024-03-25T06:27:57;13.87;;;5.40;;
41887;SDS011;63122;52.424;13.458;2024-03-25T06:29:49;20.00;;;5.73;;
41887;SDS011;63122;52.424;13.458;2024-03-25T06:31:40;15.63;;;5.20;;
41887;SDS011;63122;52.424;13.458;2024-03-25T06:33:47;14.00;;;5.37;;
41887;SDS011;63122;52.424;13.458;2024-03-25T06:35:53;15.90;;;5.27;;
41887;SDS011;63122;52.424;13.458;2024-03-25T06:37:45;16.27;;;5.27;;
41887;SDS011;63122;52.424;13.458;2024-03-25T06:39:37;12.50;;;3.73;;
41887;SDS011;63122;52.424;13.458;2024-03-25T06:41:28;12.83;;;4.97;;
41887;SDS011;63122;52.424;13.458;2024-03-25T06:43:22;13.60;;;4.80;;
41887;SDS011;63122;52.424;13.458;2024-03-25T06:45:14;12.07;;;4.03;;
41887;SDS011;63122;52.424;13.458;2024-03-25T06:47:05;14.70;;;4.57;;
41887;SDS011;63122;52.424;13.458;2024-03-25T06:48:57;13.80;;;4.73;;
41887;SDS011;63122;52.424;13.458;2024-03-25T06:50:54;10.43;;;4.27;;
41887;SDS011;63122;52.424;13.458;2024-03-25T06:52:46;13.80;;;4.40;;
41887;SDS011;63122;52.424;13.458;2024-03-25T06:54:38;10.27;;;3.43;;
41887;SDS011;63122;52.424;13.458;2024-03-25T06:56:30;13.20;;;4.23;;
41887;SDS011;63122;52.424;13.458;2024-03-25T06:58:24;8.50;;;4.47;;
41887;SDS011;63122;52.424;13.458;2024-03-25T07:00:17;11.53;;;4.43;;
41887;SDS011;63122;52.424;13.458;2024-03-25T07:02:09;9.20;;;3.70;;
41887;SDS011;63122;52.424;13.458;2024-03-25T07:04:01;20.37;;;5.63;;
41887;SDS011;63122;52.424;13.458;2024-03-25T07:05:52;9.03;;;4.13;;
41887;SDS011;63122;52.424;13.458;2024-03-25T07:07:44;10.70;;;4.27;;
41887;SDS011;63122;52.424;13.458;2024-03-25T07:09:35;11.77;;;3.93;;
41887;SDS011;63122;52.424;13.458;2024-03-25T07:11:27;10.47;;;3.87;;
41887;SDS011;63122;52.424;13.458;2024-03-25T07:13:19;9.07;;;3.93;;
41887;SDS011;63122;52.424;13.458;2024-03-25T07:15:13;11.47;;;4.50;;
41887;SDS011;63122;52.424;13.458;2024-03-25T07:17:04;12.97;;;4.57;;
41887;SDS011;63122;52.424;13.458;2024-03-25T07:18:56;11.10;;;4.30;;
41887;SDS011;63122;52.424;13.458;2024-03-25T07:20:47;11.53;;;4.17;;
41887;SDS011;63122;52.424;13.458;2024-03-25T07:22:39;12.80;;;4.00;;
41887;SDS011;63122;52.424;13.458;2024-03-25T07:24:31;11.47;;;4.33;;
41887;SDS011;63122;52.424;13.458;2024-03-25T07:26:22;9.57;;;4.73;;
41887;SDS011;63122;52.424;13.458;2024-03-25T07:28:14;11.50;;;4.57;;
41887;SDS011;63122;52.424;13.458;2024-03-25T07:30:06;10.60;;;4.53;;
41887;SDS011;63122;52.424;13.458;2024-03-25T07:32:01;12.60;;;5.03;;
41887;SDS011;63122;52.424;13.458;2024-03-25T07:33:52;12.00;;;4.33;;
41887;SDS011;63122;52.424;13.458;2024-03-25T07:35:44;11.93;;;4.60;;
41887;SDS011;63122;52.424;13.458;2024-03-25T07:37:36;7.23;;;3.90;;
41887;SDS011;63122;52.424;13.458;2024-03-25T07:39:27;10.60;;;4.53;;
41887;SDS011;63122;52.424;13.458;2024-03-25T07:41:19;11.23;;;4.60;;
41887;SDS011;63122;52.424;13.458;2024-03-25T07:43:11;7.80;;;4.30;;
41887;SDS011;63122;52.424;13.458;2024-03-25T07:45:03;8.40;;;4.20;;
41887;SDS011;63122;52.424;13.458;2024-03-25T07:46:55;6.70;;;3.50;;
41887;SDS011;63122;52.424;13.458;2024-03-25T07:48:49;9.57;;;4.50;;
41887;SDS011;63122;52.424;13.458;2024-03-25T07:50:41;7.80;;;3.97;;
41887;SDS011;63122;52.424;13.458;2024-03-25T07:52:32;11.17;;;4.17;;
41887;SDS011;63122;52.424;13.458;2024-03-25T07:54:24;10.67;;;3.70;;
41887;SDS011;63122;52.424;13.458;2024-03-25T07:56:16;9.83;;;3.70;;
41887;SDS011;63122;52.424;13.458;2024-03-25T07:58:08;6.57;;;3.47;;
41887;SDS011;63122;52.424;13.458;2024-03-25T08:00:00;9.47;;;4.60;;
41887;SDS011;63122;52.424;13.458;2024-03-25T08:01:51;8.03;;;4.07;;
41887;SDS011;63122;52.424;13.458;2024-03-25T08:03:43;8.77;;;3.83;;
41887;SDS011;63122;52.424;13.458;2024-03-25T08:05:37;15.97;;;4.00;;
41887;SDS011;63122;52.424;13.458;2024-03-25T08:07:28;10.13;;;3.93;;
41887;SDS011;63122;52.424;13.458;2024-03-25T08:09:20;6.57;;;3.83;;
41887;SDS011;63122;52.424;13.458;2024-03-25T08:11:12;12.53;;;3.63;;
41887;SDS011;63122;52.424;13.458;2024-03-25T08:13:03;9.27;;;3.80;;
41887;SDS011;63122;52.424;13.458;2024-03-25T08:14:55;8.33;;;4.60;;
41887;SDS011;63122;52.424;13.458;2024-03-25T08:16:46;7.20;;;3.93;;
41887;SDS011;63122;52.424;13.458;2024-03-25T08:18:38;13.10;;;4.70;;
41887;SDS011;63122;52.424;13.458;2024-03-25T08:20:30;14.20;;;4.60;;
41887;SDS011;63122;52.424;13.458;2024-03-25T08:22:24;10.00;;;4.47;;
41887;SDS011;63122;52.424;13.458;2024-03-25T08:24:16;8.20;;;4.40;;
41887;SDS011;63122;52.424;13.458;2024-03-25T08:26:07;14.10;;;4.67;;
41887;SDS011;63122;52.424;13.458;2024-03-25T08:27:59;10.20;;;4.10;;
41887;SDS011;63122;52.424;13.458;2024-03-25T08:29:50;12.43;;;4.80;;
41887;SDS011;63122;52.424;13.458;2024-03-25T08:31:42;8.67;;;4.00;;
41887;SDS011;63122;52.424;13.458;2024-03-25T08:33:34;12.63;;;4.10;;
41887;SDS011;63122;52.424;13.458;2024-03-25T08:35:25;10.57;;;4.40;;
41887;SDS011;63122;52.424;13.458;2024-03-25T08:37:17;11.33;;;3.97;;
41887;SDS011;63122;52.424;13.458;2024-03-25T08:39:11;13.03;;;4.90;;
41887;SDS011;63122;52.424;13.458;2024-03-25T08:41:03;16.73;;;4.67;;
41887;SDS011;63122;52.424;13.458;2024-03-25T08:42:55;11.03;;;4.93;;
41887;SDS011;63122;52.424;13.458;2024-03-25T08:44:46;8.53;;;4.13;;
41887;SDS011;63122;52.424;13.458;2024-03-25T08:46:38;13.10;;;4.90;;
41887;SDS011;63122;52.424;13.458;2024-03-25T08:48:29;12.20;;;4.50;;
41887;SDS011;63122;52.424;13.458;2024-03-25T08:50:21;10.70;;;4.47;;
41887;SDS011;63122;52.424;13.458;2024-03-25T08:52:13;10.90;;;4.93;;
41887;SDS011;63122;52.424;13.458;2024-03-25T08:54:04;12.40;;;4.57;;
41887;SDS011;63122;52.424;13.458;2024-03-25T08:55:59;8.83;;;4.43;;
41887;SDS011;63122;52.424;13.458;2024-03-25T08:57:50;11.73;;;4.13;;
41887;SDS011;63122;52.424;13.458;2024-03-25T08:59:42;8.40;;;4.33;;
41887;SDS011;63122;52.424;13.458;2024-03-25T09:01:33;9.30;;;4.03;;
41887;SDS011;63122;52.424;13.458;2024-03-25T09:03:25;12.40;;;4.40;;
41887;SDS011;63122;52.424;13.458;2024-03-25T09:05:17;9.53;;;3.80;;
41887;SDS011;63122;52.424;13.458;2024-03-25T09:07:09;11.70;;;4.70;;
41887;SDS011;63122;52.424;13.458;2024-03-25T09:09:00;12.30;;;3.70;;
41887;SDS011;63122;52.424;13.458;2024-03-25T09:11:10;8.20;;;3.83;;
41887;SDS011;63122;52.424;13.458;2024-03-25T09:13:01;7.20;;;3.93;;
41887;SDS011;63122;52.424;13.458;2024-03-25T09:14:53;9.03;;;4.03;;
41887;SDS011;63122;52.424;13.458;2024-03-25T09:16:45;10.63;;;4.17;;
41887;SDS011;63122;52.424;13.458;2024-03-25T09:18:36;10.27;;;4.33;;
41887;SDS011;63122;52.424;13.458;2024-03-25T09:20:28;6.20;;;3.50;;
41887;SDS011;63122;52.424;13.458;2024-03-25T09:22:20;8.07;;;3.70;;
41887;SDS011;63122;52.424;13.458;2024-03-25T09:24:11;7.63;;;3.30;;
41887;SDS011;63122;52.424;13.458;2024-03-25T09:26:03;8.37;;;3.67;;
41887;SDS011;63122;52.424;13.458;2024-03-25T09:27:57;7.07;;;3.33;;
41887;SDS011;63122;52.424;13.458;2024-03-25T09:29:49;6.73;;;3.67;;
41887;SDS011;63122;52.424;13.458;2024-03-25T09:31:40;8.40;;;4.03;;
41887;SDS011;63122;52.424;13.458;2024-03-25T09:33:32;8.67;;;3.17;;
41887;SDS011;63122;52.424;13.458;2024-03-25T09:35:23;8.40;;;3.13;;
41887;SDS011;63122;52.424;13.458;2024-03-25T09:37:15;7.93;;;3.47;;
41887;SDS011;63122;52.424;13.458;2024-03-25T09:39:07;8.93;;;3.57;;
41887;SDS011;63122;52.424;13.458;2024-03-25T09:40:58;7.63;;;3.70;;
41887;SDS011;63122;52.424;13.458;2024-03-25T09:42:52;7.63;;;3.47;;
41887;SDS011;63122;52.424;13.458;2024-03-25T09:44:53;6.73;;;3.10;;
41887;SDS011;63122;52.424;13.458;2024-03-25T09:46:46;6.93;;;3.93;;
41887;SDS011;63122;52.424;13.458;2024-03-25T09:48:38;7.60;;;3.50;;
41887;SDS011;63122;52.424;13.458;2024-03-25T09:50:32;6.70;;;2.97;;
41887;SDS011;63122;52.424;13.458;2024-03-25T09:52:23;5.47;;;3.27;;
41887;SDS011;63122;52.424;13.458;2024-03-25T09:54:15;6.23;;;3.30;;
41887;SDS011;63122;52.424;13.458;2024-03-25T09:56:07;5.73;;;2.93;;
41887;SDS011;63122;52.424;13.458;2024-03-25T09:58:02;7.97;;;3.63;;
41887;SDS011;63122;52.424;13.458;2024-03-25T09:59:56;8.47;;;2.87;;
41887;SDS011;63122;52.424;13.458;2024-03-25T10:01:48;6.97;;;3.13;;
41887;SDS011;63122;52.424;13.458;2024-03-25T10:03:41;5.83;;;2.57;;
41887;SDS011;63122;52.424;13.458;2024-03-25T10:05:32;6.13;;;2.73;;
41887;SDS011;63122;52.424;13.458;2024-03-25T10:07:25;6.03;;;3.37;;
41887;SDS011;63122;52.424;13.458;2024-03-25T10:09:18;6.50;;;3.47;;
41887;SDS011;63122;52.424;13.458;2024-03-25T10:11:11;4.53;;;2.60;;
41887;SDS011;63122;52.424;13.458;2024-03-25T10:13:05;5.83;;;2.77;;
41887;SDS011;63122;52.424;13.458;2024-03-25T10:14:57;9.37;;;3.07;;
41887;SDS011;63122;52.424;13.458;2024-03-25T10:16:48;6.60;;;3.50;;
41887;SDS011;63122;52.424;13.458;2024-03-25T10:18:40;4.83;;;2.70;;
41887;SDS011;63122;52.424;13.458;2024-03-25T10:20:33;8.13;;;2.73;;
41887;SDS011;63122;52.424;13.458;2024-03-25T10:22:25;4.57;;;2.37;;
41887;SDS011;63122;52.424;13.458;2024-03-25T10:24:16;7.77;;;2.40;;
41887;SDS011;63122;52.424;13.458;2024-03-25T10:26:08;2.70;;;1.80;;
41887;SDS011;63122;52.424;13.458;2024-03-25T10:28:00;5.43;;;2.30;;
41887;SDS011;63122;52.424;13.458;2024-03-25T10:29:55;6.70;;;2.10;;
41887;SDS011;63122;52.424;13.458;2024-03-25T10:31:47;4.37;;;2.60;;
41887;SDS011;63122;52.424;13.458;2024-03-25T10:33:38;5.20;;;2.67;;
41887;SDS011;63122;52.424;13.458;2024-03-25T10:35:30;5.07;;;2.33;;
41887;SDS011;63122;52.424;13.458;2024-03-25T10:37:23;4.33;;;2.00;;
41887;SDS011;63122;52.424;13.458;2024-03-25T10:39:18;5.23;;;2.03;;
41887;SDS011;63122;52.424;13.458;2024-03-25T10:41:16;6.83;;;2.37;;
41887;SDS011;63122;52.424;13.458;2024-03-25T10:43:09;5.27;;;2.30;;
41887;SDS011;63122;52.424;13.458;2024-03-25T10:45:05;6.47;;;1.97;;
41887;SDS011;63122;52.424;13.458;2024-03-25T10:47:00;5.93;;;2.20;;
41887;SDS011;63122;52.424;13.458;2024-03-25T10:48:57;2.97;;;1.80;;
41887;SDS011;63122;52.424;13.458;2024-03-25T10:50:58;3.63;;;1.80;;
41887;SDS011;63122;52.424;13.458;2024-03-25T10:52:52;6.43;;;1.73;;
41887;SDS011;63122;52.424;13.458;2024-03-25T10:54:45;3.07;;;1.70;;
41887;SDS011;63122;52.424;13.458;2024-03-25T10:56:39;3.17;;;1.27;;
41887;SDS011;63122;52.424;13.458;2024-03-25T10:58:30;3.43;;;1.60;;
41887;SDS011;63122;52.424;13.458;2024-03-25T11:00:26;4.53;;;2.37;;
41887;SDS011;63122;52.424;13.458;2024-03-25T11:02:18;2.83;;;1.70;;
41887;SDS011;63122;52.424;13.458;2024-03-25T11:04:11;4.70;;;1.30;;
41887;SDS011;63122;52.424;13.458;2024-03-25T11:06:03;4.97;;;1.73;;
41887;SDS011;63122;52.424;13.458;2024-03-25T11:07:55;4.57;;;1.50;;
41887;SDS011;63122;52.424;13.458;2024-03-25T11:09:46;3.07;;;1.50;;
41887;SDS011;63122;52.424;13.458;2024-03-25T11:11:39;5.40;;;1.70;;
41887;SDS011;63122;52.424;13.458;2024-03-25T11:13:31;5.50;;;1.90;;
41887;SDS011;63122;52.424;13.458;2024-03-25T11:15:22;3.27;;;1.87;;
41887;SDS011;63122;52.424;13.458;2024-03-25T11:17:16;3.40;;;1.40;;
41887;SDS011;63122;52.424;13.458;2024-03-25T11:19:10;5.17;;;1.70;;
41887;SDS011;63122;52.424;13.458;2024-03-25T11:21:02;5.20;;;1.93;;
41887;SDS011;63122;52.424;13.458;2024-03-25T11:22:55;2.93;;;1.60;;
41887;SDS011;63122;52.424;13.458;2024-03-25T11:24:47;2.03;;;1.30;;
41887;SDS011;63122;52.424;13.458;2024-03-25T11:26:42;3.50;;;1.60;;
41887;SDS011;63122;52.424;13.458;2024-03-25T11:28:33;7.47;;;1.77;;
41887;SDS011;63122;52.424;13.458;2024-03-25T11:30:25;4.10;;;1.87;;
41887;SDS011;63122;52.424;13.458;2024-03-25T11:32:19;4.10;;;1.83;;
41887;SDS011;63122;52.424;13.458;2024-03-25T11:34:11;8.17;;;1.60;;
41887;SDS011;63122;52.424;13.458;2024-03-25T11:36:03;4.33;;;1.97;;
41887;SDS011;63122;52.424;13.458;2024-03-25T11:37:57;7.93;;;1.83;;
41887;SDS011;63122;52.424;13.458;2024-03-25T11:39:48;2.67;;;1.67;;
41887;SDS011;63122;52.424;13.458;2024-03-25T11:41:40;5.83;;;2.10;;
41887;SDS011;63122;52.424;13.458;2024-03-25T11:43:32;3.70;;;1.60;;
41887;SDS011;63122;52.424;13.458;2024-03-25T11:45:25;4.07;;;1.70;;
41887;SDS011;63122;52.424;13.458;2024-03-25T11:47:19;4.80;;;1.70;;
41887;SDS011;63122;52.424;13.458;2024-03-25T11:49:12;2.90;;;1.30;;
41887;SDS011;63122;52.424;13.458;2024-03-25T11:51:05;4.60;;;1.70;;
41887;SDS011;63122;52.424;13.458;2024-03-25T11:52:57;4.50;;;1.70;;
41887;SDS011;63122;52.424;13.458;2024-03-25T11:54:53;5.17;;;1.63;;
41887;SDS011;63122;52.424;13.458;2024-03-25T11:56:45;3.93;;;1.87;;
41887;SDS011;63122;52.424;13.458;2024-03-25T11:58:37;8.57;;;1.80;;
41887;SDS011;63122;52.424;13.458;2024-03-25T12:00:29;3.27;;;1.53;;
41887;SDS011;63122;52.424;13.458;2024-03-25T12:02:23;5.53;;;1.87;;
41887;SDS011;63122;52.424;13.458;2024-03-25T12:04:16;7.13;;;1.53;;
41887;SDS011;63122;52.424;13.458;2024-03-25T12:06:09;3.73;;;1.60;;
41887;SDS011;63122;52.424;13.458;2024-03-25T12:08:00;4.33;;;1.70;;
41887;SDS011;63122;52.424;13.458;2024-03-25T12:09:52;3.47;;;1.50;;
41887;SDS011;63122;52.424;13.458;2024-03-25T12:11:59;4.40;;;1.70;;
41887;SDS011;63122;52.424;13.458;2024-03-25T12:13:51;3.30;;;1.20;;
41887;SDS011;63122;52.424;13.458;2024-03-25T12:15:43;3.87;;;1.67;;
41887;SDS011;63122;52.424;13.458;2024-03-25T12:17:38;5.23;;;1.87;;
41887;SDS011;63122;52.424;13.458;2024-03-25T12:19:30;5.53;;;1.50;;
41887;SDS011;63122;52.424;13.458;2024-03-25T12:21:22;2.97;;;1.43;;
41887;SDS011;63122;52.424;13.458;2024-03-25T12:23:14;1.33;;;0.80;;
41887;SDS011;63122;52.424;13.458;2024-03-25T12:25:05;3.77;;;1.37;;
41887;SDS011;63122;52.424;13.458;2024-03-25T12:26:58;2.80;;;1.10;;
41887;SDS011;63122;52.424;13.458;2024-03-25T12:28:50;2.03;;;1.10;;
41887;SDS011;63122;52.424;13.458;2024-03-25T12:30:48;2.80;;;1.20;;
41887;SDS011;63122;52.424;13.458;2024-03-25T12:32:43;2.10;;;1.00;;
41887;SDS011;63122;52.424;13.458;2024-03-25T12:34:36;2.83;;;1.20;;
41887;SDS011;63122;52.424;13.458;2024-03-25T12:36:27;1.80;;;1.10;;
41887;SDS011;63122;52.424;13.458;2024-03-25T12:38:23;2.07;;;1.00;;
41887;SDS011;63122;52.424;13.458;2024-03-25T12:40:25;1.50;;;1.10;;
41887;SDS011;63122;52.424;13.458;2024-03-25T12:42:18;3.07;;;1.30;;
41887;SDS011;63122;52.424;13.458;2024-03-25T12:44:11;2.23;;;1.30;;